Airfield :







YOU CAN JOIN US ON...

 
LOGIN :

Register | Disclaimer

   EN    FR    IT 

 









Legend :    VFR   Marginal VFR   IFR   Intensive IFR   Very Intensive IFR
Visi :
Ceiling :
>= 8 km
>= 3000ft
5 to 8 km
1000 to 3000 ft
1500m to 5 km
500 to 1000 ft
800 to 1500m
200 to 500 ft
< 800m
< 200 ft
Symbols :   Thunderstorms  Fog  Heavy snow  Heavy precipitations  Wind > 20 kt







- Airport Elevation : 39 ft
- IATA code : YNA


CYNA - Natashquan

CURRENT METAR :
  • 210400Z AUTO 04005KT 9SM BKN130 BKN160 OVC180 00/M01 A3026 RMK SLP250

EXPIRED METARs :
  • 210300Z AUTO 13003KT 9SM SCT150 00/M01 A3027 RMK SLP252
  • 210200Z AUTO 06004KT 060V140 9SM BKN140 OVC160 00/M01 A3027 RMK SLP254

TAF TAF CYNA
Valid from the 21 at 02:00 until the 21 at 14:00 UTC


210142Z 2102/2114 VRB03KT P6SM BKN170
PROB30 2104/2109 2SM BR
FM210900 09009KT P6SM OVC030
BECMG 2109/2111 1SM -RA BR OVC003
FM211100 11015KT 1SM -RA BR OVC003 RMK FCST BASED ON AUTO OBS. NXT FCST BY 210800Z
CZUL FIR / North America



MET'MAP, your aeronautical weather chart ! - Copyright ORBIFLY December 2007 - Disclaimer

ORBIFLY MET'MAP TEAM :

Programming & Development : Alexandra Zaïnal
Concept & Development : Baudouin d'Aumeries
Co-Development & Prog : Marc-Olivier Méhu
Technical & hardware support : Manuel Goepfert

Contact : metmap@orbifly.com




SOURCES & CREDITS :

   NOAA